createdAt,value
2019-03-04T00:01:12.431Z,23.25
2019-03-04T00:03:41.746Z,19.07
2019-03-04T00:06:10.977Z,18.62
2019-03-04T00:08:40.246Z,18.75
2019-03-04T00:11:09.506Z,17.67
2019-03-04T00:13:38.791Z,12.53
2019-03-04T00:16:08.146Z,19.20
2019-03-04T00:18:37.413Z,15.18
2019-03-04T00:21:06.669Z,24.37
2019-03-04T00:23:35.921Z,16.85
2019-03-04T00:26:05.218Z,13.68
2019-03-04T00:28:34.481Z,12.60
2019-03-04T00:31:03.776Z,11.08
2019-03-04T00:33:33.027Z,12.15
2019-03-04T00:36:02.273Z,9.98
2019-03-04T00:38:31.516Z,17.65
2019-03-04T00:41:00.827Z,12.88
2019-03-04T00:43:30.090Z,13.28
2019-03-04T00:45:59.377Z,15.48
2019-03-04T00:48:28.711Z,13.58
2019-03-04T00:50:57.913Z,14.85
2019-03-04T00:53:27.188Z,13.93
2019-03-04T00:55:56.411Z,17.73
2019-03-04T00:58:25.701Z,15.65
2019-03-04T01:00:54.949Z,17.20
2019-03-04T01:03:24.196Z,17.20
2019-03-04T01:05:53.456Z,17.57
2019-03-04T01:08:22.725Z,17.60
2019-03-04T01:10:51.981Z,22.85
2019-03-04T01:13:21.240Z,23.02
2019-03-04T01:15:50.491Z,16.97
2019-03-04T01:18:19.750Z,16.02
2019-03-04T01:20:49.047Z,21.85
2019-03-04T01:23:18.273Z,13.72
2019-03-04T01:25:47.514Z,16.35
2019-03-04T01:28:16.772Z,15.15
2019-03-04T01:30:46.071Z,17.17
2019-03-04T01:33:15.292Z,13.93
2019-03-04T01:35:44.528Z,16.87
2019-03-04T01:38:13.821Z,17.55
2019-03-04T01:40:43.072Z,15.48
2019-03-04T01:43:12.383Z,20.10
2019-03-04T01:45:41.655Z,11.97
2019-03-04T01:48:11.014Z,11.53
2019-03-04T01:50:40.247Z,7.67
2019-03-04T01:53:09.523Z,11.55
2019-03-04T01:55:38.749Z,7.80
2019-03-04T01:58:08.012Z,11.48
2019-03-04T02:00:37.263Z,7.33
2019-03-04T02:03:06.543Z,7.70
2019-03-04T02:05:35.776Z,12.78
2019-03-04T02:08:05.048Z,16.70
2019-03-04T02:10:34.302Z,12.88
2019-03-04T02:13:03.576Z,14.70
2019-03-04T02:15:32.794Z,14.03
2019-03-04T02:18:02.043Z,12.75
2019-03-04T02:20:31.271Z,11.30
2019-03-04T02:23:00.507Z,10.85
2019-03-04T02:25:57.620Z,12.95
2019-03-04T02:28:26.886Z,11.15
2019-03-04T02:30:56.108Z,7.58
2019-03-04T02:33:25.334Z,6.87
2019-03-04T02:35:54.542Z,5.72
2019-03-04T02:38:23.790Z,10.20
2019-03-04T02:40:53.007Z,12.03
2019-03-04T02:43:22.261Z,9.63
2019-03-04T02:45:51.469Z,14.03
2019-03-04T02:48:20.752Z,14.83
2019-03-04T02:50:50.004Z,12.18
2019-03-04T02:53:19.254Z,8.75
2019-03-04T02:55:48.539Z,13.22
2019-03-04T02:58:17.782Z,10.45
2019-03-04T03:00:46.998Z,11.33
2019-03-04T03:03:16.226Z,11.35
2019-03-04T03:05:45.510Z,9.63
2019-03-04T03:17:45.939Z,9.00
2019-03-04T03:20:15.393Z,14.07
2019-03-04T03:22:44.632Z,9.98
2019-03-04T03:25:13.905Z,4.67
2019-03-04T03:27:43.130Z,7.87
2019-03-04T03:30:12.589Z,6.40
2019-03-04T03:32:41.829Z,8.18
2019-03-04T03:35:11.192Z,5.47
2019-03-04T03:37:40.515Z,7.28
2019-03-04T03:40:11.223Z,11.33
2019-03-04T03:42:40.483Z,12.40
2019-03-04T03:45:10.159Z,13.65
2019-03-04T03:47:39.450Z,14.68
2019-03-04T03:50:09.651Z,15.68
2019-03-04T03:52:38.898Z,11.22
2019-03-04T03:55:08.822Z,12.07
2019-03-04T03:57:38.080Z,7.92
2019-03-04T04:00:11.081Z,5.10
2019-03-04T04:02:40.347Z,7.58
2019-03-04T04:05:09.563Z,4.58
2019-03-04T04:07:38.820Z,8.90
2019-03-04T04:10:09.797Z,8.90
2019-03-04T04:12:39.046Z,8.33
2019-03-04T04:15:08.963Z,8.58
2019-03-04T04:17:38.213Z,10.40
2019-03-04T04:20:07.626Z,9.40
2019-03-04T04:22:36.985Z,9.35
2019-03-04T04:25:06.484Z,9.05
2019-03-04T04:27:36.228Z,7.87
2019-03-04T04:30:06.173Z,8.13
2019-03-04T04:32:35.443Z,9.78
2019-03-04T04:35:04.654Z,11.57
2019-03-04T04:37:33.891Z,7.65
2019-03-04T04:40:03.130Z,6.15
2019-03-04T04:42:32.344Z,8.58
2019-03-04T04:45:01.596Z,8.95
2019-03-04T04:47:30.864Z,4.08
2019-03-04T04:50:00.242Z,3.77
2019-03-04T04:52:29.532Z,2.80
2019-03-04T04:54:59.095Z,3.50
2019-03-04T04:57:28.305Z,3.87
2019-03-04T04:59:57.546Z,3.42
2019-03-04T05:02:26.797Z,3.58
2019-03-04T05:04:56.123Z,6.12
2019-03-04T05:07:25.449Z,3.30
2019-03-04T05:09:54.706Z,5.28
2019-03-04T05:12:23.939Z,1.85
2019-03-04T05:14:53.269Z,3.40
2019-03-04T05:17:22.522Z,5.53
2019-03-04T05:19:51.773Z,4.58
2019-03-04T05:22:21.005Z,3.62
2019-03-04T05:24:50.270Z,4.65
2019-03-04T05:27:19.526Z,2.35
2019-03-04T05:29:48.794Z,2.77
2019-03-04T05:32:18.026Z,2.95
2019-03-04T05:34:47.275Z,4.05
2019-03-04T05:37:16.522Z,2.10
2019-03-04T05:39:45.831Z,4.20
2019-03-04T05:42:15.062Z,3.15
2019-03-04T05:44:44.449Z,4.08
2019-03-04T05:47:13.734Z,4.92
2019-03-04T05:49:43.006Z,3.33
2019-03-04T05:52:12.279Z,4.47
2019-03-04T05:54:41.497Z,5.92
2019-03-04T05:57:10.769Z,3.22
2019-03-04T05:59:39.995Z,4.58
2019-03-04T06:02:10.545Z,4.33
2019-03-04T06:04:41.055Z,3.72
2019-03-04T06:07:15.767Z,3.98
2019-03-04T06:09:45.010Z,1.57
2019-03-04T06:12:14.356Z,2.62
2019-03-04T06:14:43.625Z,1.87
2019-03-04T06:17:12.893Z,1.95
2019-03-04T06:19:44.005Z,1.47
2019-03-04T06:22:13.126Z,3.12
2019-03-04T06:24:42.361Z,3.27
2019-03-04T06:27:11.686Z,2.00
2019-03-04T06:29:40.915Z,2.30
2019-03-04T06:32:10.200Z,1.35
2019-03-04T06:34:39.421Z,4.65
2019-03-04T06:37:08.683Z,2.08
2019-03-04T06:39:37.885Z,3.67
2019-03-04T06:42:07.188Z,7.35
2019-03-04T06:44:36.523Z,6.37
2019-03-04T06:47:05.925Z,3.42
2019-03-04T06:49:35.142Z,2.95
2019-03-04T06:52:04.582Z,5.08
2019-03-04T06:54:58.486Z,4.60
2019-03-04T06:57:33.813Z,3.12
2019-03-04T07:00:47.179Z,5.67
2019-03-04T07:03:28.298Z,4.10
2019-03-04T07:05:57.567Z,4.25
2019-03-04T07:09:11.466Z,3.85
2019-03-04T07:11:47.507Z,3.50
2019-03-04T07:14:16.773Z,5.65
2019-03-04T07:16:46.869Z,2.90
2019-03-04T07:19:41.415Z,3.58
2019-03-04T07:22:11.168Z,2.33
2019-03-04T07:31:31.105Z,2.47
2019-03-04T07:34:33.993Z,3.05
2019-03-04T07:40:35.081Z,4.73
2019-03-04T07:43:31.174Z,4.10
2019-03-04T07:46:01.783Z,4.45
2019-03-04T07:48:31.014Z,4.37
2019-03-04T07:51:11.965Z,4.22
2019-03-04T07:53:46.223Z,3.77
2019-03-04T07:56:12.290Z,4.58
2019-03-04T07:58:42.853Z,3.80
2019-03-04T08:01:12.111Z,4.62
2019-03-04T08:03:44.548Z,4.03
2019-03-04T08:06:13.873Z,3.65
2019-03-04T08:09:11.505Z,3.92
2019-03-04T08:12:32.305Z,4.60
2019-03-04T08:15:01.864Z,4.33
2019-03-04T08:17:31.237Z,5.47
2019-03-04T08:20:00.623Z,5.95
2019-03-04T08:22:29.952Z,4.40
2019-03-04T08:24:59.248Z,5.30
2019-03-04T08:27:28.577Z,6.40
2019-03-04T08:29:57.856Z,5.00
2019-03-04T08:32:27.159Z,4.17
2019-03-04T08:34:56.542Z,4.97
2019-03-04T08:37:25.890Z,4.92
2019-03-04T08:39:55.131Z,5.53
2019-03-04T08:42:24.500Z,5.47
2019-03-04T08:44:53.771Z,5.45
2019-03-04T08:47:23.174Z,10.40
2019-03-04T08:49:52.394Z,6.92
2019-03-04T08:52:21.783Z,6.95
2019-03-04T08:54:51.064Z,5.72
2019-03-04T08:57:20.339Z,10.28
2019-03-04T08:59:49.624Z,8.55
2019-03-04T09:02:18.892Z,12.63
2019-03-04T09:04:48.164Z,8.20
2019-03-04T09:07:17.470Z,6.55
2019-03-04T09:09:46.726Z,11.78
2019-03-04T09:12:15.998Z,7.92
2019-03-04T09:14:45.230Z,10.32
2019-03-04T09:17:14.462Z,6.53
2019-03-04T09:19:43.728Z,6.87
2019-03-04T09:22:13.005Z,7.80
2019-03-04T09:24:42.293Z,8.83
2019-03-04T09:27:11.593Z,7.67
2019-03-04T09:29:40.942Z,8.95
2019-03-04T09:32:10.241Z,9.08
2019-03-04T09:34:39.592Z,6.25
2019-03-04T09:37:08.921Z,6.40
2019-03-04T09:39:38.203Z,8.83
2019-03-04T09:42:22.806Z,5.20
2019-03-04T09:44:52.154Z,6.85
2019-03-04T09:47:21.452Z,7.00
2019-03-04T09:49:50.726Z,8.48
2019-03-04T09:52:20.032Z,8.75
2019-03-04T09:54:49.417Z,9.05
2019-03-04T09:57:18.697Z,8.60
2019-03-04T09:59:48.017Z,8.70
2019-03-04T10:02:21.901Z,7.53
2019-03-04T10:05:41.310Z,9.20
2019-03-04T10:08:19.021Z,9.65
2019-03-04T10:11:20.842Z,7.85
2019-03-04T10:14:42.799Z,12.05
2019-03-04T10:21:54.340Z,10.65
2019-03-04T10:24:56.529Z,7.20
2019-03-04T10:27:57.176Z,10.93
2019-03-04T10:31:15.098Z,8.88
2019-03-04T10:33:56.586Z,9.23
2019-03-04T10:37:10.554Z,11.43
2019-03-04T10:40:15.544Z,13.22
2019-03-04T10:43:34.533Z,8.80
2019-03-04T10:46:19.864Z,10.55
2019-03-04T10:48:49.465Z,10.13
2019-03-04T10:51:20.420Z,11.50
2019-03-04T10:53:50.472Z,10.82
2019-03-04T10:56:19.803Z,6.10
2019-03-04T10:58:49.209Z,5.10
2019-03-04T11:01:18.566Z,3.37
2019-03-04T11:03:48.045Z,3.67
2019-03-04T11:06:17.468Z,5.45
2019-03-04T11:08:46.830Z,3.77
2019-03-04T11:11:29.285Z,7.30
2019-03-04T11:13:50.438Z,3.60
2019-03-04T11:16:19.745Z,2.45
2019-03-04T11:18:49.079Z,2.02
2019-03-04T11:21:18.434Z,2.50
2019-03-04T11:23:48.054Z,3.22
2019-03-04T11:26:17.361Z,2.55
2019-03-04T11:28:47.032Z,1.92
2019-03-04T11:31:16.617Z,1.30
2019-03-04T11:33:46.229Z,3.47
2019-03-04T11:36:20.551Z,4.60
2019-03-04T11:43:39.603Z,2.15
2019-03-04T11:46:32.531Z,1.47
2019-03-04T11:53:33.387Z,1.65
2019-03-04T11:56:32.433Z,2.12
2019-03-04T11:59:32.380Z,3.83
2019-03-04T12:02:39.048Z,1.37
2019-03-04T12:05:32.044Z,3.15
2019-03-04T12:08:34.109Z,2.20
2019-03-04T12:11:38.140Z,2.75
2019-03-04T12:14:33.779Z,2.20
2019-03-04T12:17:31.232Z,3.33
2019-03-04T12:20:33.272Z,7.80
2019-03-04T12:25:51.649Z,7.83
2019-03-04T12:28:32.953Z,4.00
2019-03-04T12:31:02.374Z,5.92
2019-03-04T12:33:31.643Z,3.85
2019-03-04T12:36:01.146Z,4.58
2019-03-04T12:38:30.475Z,6.85
2019-03-04T12:41:01.509Z,3.80
2019-03-04T12:43:30.901Z,3.15
2019-03-04T12:46:00.285Z,5.17
2019-03-04T12:48:29.776Z,6.85
2019-03-04T12:50:59.032Z,4.95
2019-03-04T12:53:37.036Z,5.83
2019-03-04T12:55:59.565Z,7.57
2019-03-04T12:58:28.824Z,6.08
2019-03-04T13:00:58.279Z,5.55
2019-03-04T13:03:27.567Z,4.25
2019-03-04T13:05:56.978Z,5.05
2019-03-04T13:08:26.247Z,5.25
2019-03-04T13:10:55.721Z,5.78
2019-03-04T13:13:25.030Z,4.05
2019-03-04T13:15:55.691Z,6.10
2019-03-04T13:18:25.114Z,6.25
2019-03-04T13:20:54.459Z,5.62
2019-03-04T13:23:24.070Z,4.03
2019-03-04T13:25:53.389Z,7.28
2019-03-04T13:28:22.731Z,5.92
2019-03-04T13:30:52.308Z,7.83
2019-03-04T13:33:21.750Z,6.22
2019-03-04T13:35:51.009Z,7.12
2019-03-04T13:38:20.372Z,8.35
2019-03-04T13:40:49.638Z,6.45
2019-03-04T13:43:33.843Z,7.45
2019-03-04T13:46:03.106Z,6.97
2019-03-04T13:48:32.461Z,5.45
2019-03-04T13:51:01.757Z,8.85
2019-03-04T13:53:34.148Z,7.62
2019-03-04T13:56:03.534Z,8.08
2019-03-04T13:58:32.959Z,8.88
2019-03-04T14:01:02.226Z,11.33
2019-03-04T14:03:31.499Z,9.43
2019-03-04T14:06:00.794Z,9.88
2019-03-04T14:08:30.151Z,13.78
2019-03-04T14:10:59.424Z,9.48
2019-03-04T14:13:28.704Z,12.82
2019-03-04T14:15:58.088Z,10.13
2019-03-04T14:18:27.426Z,5.75
2019-03-04T14:20:56.746Z,10.10
2019-03-04T14:23:25.926Z,10.05
2019-03-04T14:25:55.440Z,13.83
2019-03-04T14:28:24.748Z,10.72
2019-03-04T14:30:54.021Z,7.40
2019-03-04T14:33:23.263Z,10.40
2019-03-04T14:35:52.546Z,8.28
2019-03-04T14:38:21.809Z,5.80
2019-03-04T14:40:51.124Z,9.18
2019-03-04T14:43:20.404Z,7.60
2019-03-04T14:45:49.739Z,9.48
2019-03-04T14:48:19.104Z,10.13
2019-03-04T14:50:48.388Z,8.68
2019-03-04T14:53:17.928Z,8.43
2019-03-04T14:55:47.210Z,9.38
2019-03-04T14:58:16.468Z,8.05
2019-03-04T15:00:47.451Z,9.25
2019-03-04T15:03:23.100Z,7.40
2019-03-04T15:05:48.026Z,8.15
2019-03-04T15:08:17.290Z,10.70
2019-03-04T15:10:46.577Z,9.53
2019-03-04T15:13:15.901Z,9.53
2019-03-04T15:15:45.269Z,9.78
2019-03-04T15:18:14.816Z,7.42
2019-03-04T15:20:44.160Z,8.25
2019-03-04T15:23:13.622Z,8.60
2019-03-04T15:25:43.061Z,13.18
2019-03-04T15:28:17.582Z,9.45
2019-03-04T15:30:48.077Z,7.80
2019-03-04T15:33:18.773Z,15.00
2019-03-04T15:35:48.275Z,9.08
2019-03-04T15:38:17.602Z,13.25
2019-03-04T15:40:46.905Z,7.30
2019-03-04T15:43:16.266Z,6.67
2019-03-04T15:45:47.611Z,9.90
2019-03-04T15:48:17.275Z,10.32
2019-03-04T15:50:46.549Z,11.45
2019-03-04T15:53:15.982Z,10.08
2019-03-04T15:59:34.392Z,6.85
2019-03-04T16:02:08.720Z,6.50
2019-03-04T16:04:38.038Z,10.20
2019-03-04T16:07:08.837Z,8.18
2019-03-04T16:09:38.162Z,9.38
2019-03-04T16:12:08.152Z,7.30
2019-03-04T16:14:37.448Z,7.70
2019-03-04T16:17:08.940Z,8.23
2019-03-04T16:19:38.282Z,5.65
2019-03-04T16:22:07.595Z,11.57
2019-03-04T16:24:36.906Z,7.17
2019-03-04T16:27:11.214Z,9.35
2019-03-04T16:29:40.546Z,6.90
2019-03-04T16:32:09.850Z,7.50
2019-03-04T16:34:39.172Z,8.65
2019-03-04T16:37:09.075Z,4.87
2019-03-04T16:39:38.373Z,9.73
2019-03-04T16:42:09.111Z,10.50
2019-03-04T16:44:40.002Z,11.33
2019-03-04T16:47:09.408Z,11.35
2019-03-04T16:49:38.744Z,9.75
2019-03-04T16:52:09.215Z,11.68
2019-03-04T16:54:38.530Z,6.42
2019-03-04T16:57:14.293Z,9.13
2019-03-04T16:59:43.734Z,10.13
2019-03-04T17:02:13.028Z,7.00
2019-03-04T17:04:42.366Z,5.33
2019-03-04T17:07:11.632Z,9.48
2019-03-04T17:10:34.302Z,5.78
2019-03-04T17:15:50.736Z,7.58
2019-03-04T17:18:20.036Z,7.45
2019-03-04T17:20:49.326Z,7.45
2019-03-04T17:23:18.750Z,12.20
2019-03-04T17:25:48.085Z,8.88
2019-03-04T17:28:32.551Z,9.35
2019-03-04T17:31:01.865Z,9.43
2019-03-04T17:33:34.275Z,8.43
2019-03-04T17:36:03.708Z,5.75
2019-03-04T17:38:33.000Z,8.23
2019-03-04T17:41:02.340Z,8.25
2019-03-04T17:43:32.553Z,9.23
2019-03-04T17:46:02.009Z,17.77
2019-03-04T17:48:34.406Z,14.58
2019-03-04T17:51:03.819Z,9.13
2019-03-04T17:53:33.099Z,6.40
2019-03-04T17:56:32.416Z,11.18
2019-03-04T17:59:01.785Z,11.48
2019-03-04T18:01:34.187Z,6.65
2019-03-04T18:04:03.562Z,6.55
2019-03-04T18:06:32.920Z,10.15
2019-03-04T18:09:02.298Z,7.72
2019-03-04T18:11:31.794Z,9.35
2019-03-04T18:14:01.108Z,5.80
2019-03-04T18:16:30.618Z,6.33
2019-03-04T18:18:59.937Z,8.05
2019-03-04T18:21:29.294Z,7.90
2019-03-04T18:23:58.744Z,6.25
2019-03-04T18:26:51.554Z,13.43
2019-03-04T18:30:07.488Z,24.18
2019-03-04T18:33:20.903Z,16.75
2019-03-04T18:36:14.796Z,10.85
2019-03-04T18:39:15.364Z,6.42
2019-03-04T18:42:22.997Z,13.08
2019-03-04T18:45:44.274Z,14.35
2019-03-04T18:48:25.171Z,8.88
2019-03-04T18:50:54.497Z,11.95
2019-03-04T18:53:23.868Z,12.80
2019-03-04T18:55:53.233Z,10.03
2019-03-04T18:58:22.608Z,10.70
2019-03-04T19:00:51.918Z,10.45
2019-03-04T19:03:21.316Z,14.47
2019-03-04T19:05:50.654Z,11.43
2019-03-04T19:08:20.003Z,7.25
2019-03-04T19:10:49.341Z,18.20
2019-03-04T19:13:18.672Z,14.33
2019-03-04T19:15:47.988Z,6.85
2019-03-04T19:18:17.305Z,9.25
2019-03-04T19:20:46.678Z,10.78
2019-03-04T19:23:15.951Z,8.58
2019-03-04T19:25:45.219Z,8.10
2019-03-04T19:28:14.473Z,4.15
2019-03-04T19:30:43.891Z,8.78
2019-03-04T19:33:13.318Z,8.28
2019-03-04T19:35:42.758Z,8.45
2019-03-04T19:38:12.165Z,6.97
2019-03-04T19:40:41.554Z,7.72
2019-03-04T19:43:10.871Z,13.90
2019-03-04T19:45:40.205Z,12.85
2019-03-04T19:48:09.606Z,12.37
2019-03-04T19:50:39.018Z,10.08
2019-03-04T19:53:10.221Z,8.60
2019-03-04T19:55:39.802Z,8.68
2019-03-04T19:58:09.175Z,11.97
2019-03-04T20:00:38.617Z,7.57
2019-03-04T20:03:08.277Z,8.55
2019-03-04T20:05:37.672Z,11.85
2019-03-04T20:08:06.986Z,9.15
2019-03-04T20:22:29.360Z,9.58
2019-03-04T21:01:31.837Z,9.50
2019-03-04T21:04:33.782Z,14.03
2019-03-04T21:07:29.526Z,10.05
2019-03-04T21:09:58.841Z,9.25
2019-03-04T21:12:28.220Z,12.37
2019-03-04T21:14:57.538Z,6.90
2019-03-04T21:17:26.974Z,5.25
2019-03-04T21:19:56.305Z,5.90
2019-03-04T21:22:25.667Z,4.80
2019-03-04T21:24:55.059Z,3.60
2019-03-04T21:27:24.343Z,3.37
2019-03-04T21:30:15.976Z,3.50
2019-03-04T21:33:20.880Z,5.20
2019-03-04T21:36:00.584Z,2.87
2019-03-04T21:38:34.053Z,2.05
2019-03-04T21:41:35.400Z,3.47
2019-03-04T21:44:36.290Z,2.67
2019-03-04T21:47:20.124Z,4.30
2019-03-04T21:49:52.187Z,4.40
2019-03-04T21:52:42.301Z,2.52
2019-03-04T21:55:15.908Z,5.15
2019-03-04T21:57:51.120Z,5.92
2019-03-04T22:00:25.774Z,3.87
2019-03-04T22:02:59.664Z,5.00
2019-03-04T22:05:29.017Z,5.12
2019-03-04T22:07:58.428Z,5.05
2019-03-04T22:10:27.840Z,5.45
2019-03-04T22:12:57.423Z,5.22
2019-03-04T22:15:27.676Z,6.03
2019-03-04T22:17:56.942Z,8.28
2019-03-04T22:20:26.538Z,9.20
2019-03-04T22:22:55.922Z,9.45
2019-03-04T22:25:25.195Z,5.87
2019-03-04T22:27:54.474Z,7.42
2019-03-04T22:30:23.827Z,8.13
2019-03-04T22:32:53.090Z,6.12
2019-03-04T22:35:22.389Z,6.35
2019-03-04T22:37:51.685Z,8.53
2019-03-04T22:40:21.271Z,7.63
2019-03-04T22:42:50.577Z,9.45
2019-03-04T22:45:19.909Z,7.90
2019-03-04T22:47:49.668Z,7.12
2019-03-04T22:50:19.458Z,7.63
2019-03-04T22:52:48.764Z,7.47
2019-03-04T22:55:21.155Z,7.67
2019-03-04T22:57:50.496Z,9.93
2019-03-04T23:01:20.328Z,7.07
2019-03-04T23:03:49.847Z,11.90
2019-03-04T23:06:22.633Z,9.08
2019-03-04T23:11:22.187Z,15.18
2019-03-04T23:14:07.448Z,11.95
2019-03-04T23:16:36.698Z,13.28
2019-03-04T23:19:05.948Z,9.03
2019-03-04T23:21:35.228Z,12.05
2019-03-04T23:24:04.620Z,15.85
2019-03-04T23:26:35.278Z,14.53
2019-03-04T23:29:04.958Z,10.05
2019-03-04T23:31:34.281Z,11.30
2019-03-04T23:34:03.543Z,11.28
2019-03-04T23:36:32.791Z,13.05
2019-03-04T23:39:02.067Z,11.73
2019-03-04T23:41:31.313Z,12.90
2019-03-04T23:44:00.585Z,12.80
2019-03-04T23:46:29.839Z,14.25
2019-03-04T23:48:59.175Z,16.15
2019-03-04T23:51:28.460Z,14.38
2019-03-04T23:53:57.740Z,13.28
2019-03-04T23:56:26.979Z,21.02
2019-03-04T23:58:56.238Z,11.43
